createdAt,value
2018-02-18T00:00:07.336Z,4.20
2018-02-18T00:02:36.614Z,4.20
2018-02-18T00:05:05.883Z,4.21
2018-02-18T00:07:35.715Z,4.19
2018-02-18T00:10:07.178Z,4.22
2018-02-18T00:12:36.777Z,4.19
2018-02-18T00:15:06.524Z,4.14
2018-02-18T00:17:35.824Z,4.09
2018-02-18T00:20:05.783Z,4.08
2018-02-18T00:22:35.527Z,4.11
2018-02-18T00:25:04.773Z,4.10
2018-02-18T00:27:34.050Z,4.04
2018-02-18T00:30:04.814Z,4.04
2018-02-18T00:32:34.071Z,4.01
2018-02-18T00:35:03.492Z,4.01
2018-02-18T00:37:33.202Z,4.02
2018-02-18T00:40:04.958Z,3.96
2018-02-18T00:42:34.677Z,3.95
2018-02-18T00:45:04.563Z,3.92
2018-02-18T00:47:33.935Z,3.83
2018-02-18T00:50:04.133Z,3.89
2018-02-18T00:52:33.971Z,3.88
2018-02-18T00:55:03.453Z,3.86
2018-02-18T00:57:32.735Z,3.84
2018-02-18T01:00:04.331Z,3.87
2018-02-18T01:02:33.648Z,3.91
2018-02-18T01:05:03.428Z,3.88
2018-02-18T01:07:33.214Z,3.81
2018-02-18T01:10:03.143Z,3.79
2018-02-18T01:12:32.391Z,3.75
2018-02-18T01:15:02.051Z,3.73
2018-02-18T01:17:31.440Z,3.73
2018-02-18T01:20:00.898Z,3.75
2018-02-18T01:22:30.734Z,3.75
2018-02-18T01:24:59.962Z,3.74
2018-02-18T01:27:29.159Z,3.70
2018-02-18T01:29:58.773Z,3.68
2018-02-18T01:32:28.027Z,3.70
2018-02-18T01:34:57.304Z,3.68
2018-02-18T01:37:27.068Z,3.63
2018-02-18T01:39:56.398Z,3.61
2018-02-18T01:42:25.678Z,3.69
2018-02-18T01:44:55.282Z,3.63
2018-02-18T01:47:24.574Z,3.60
2018-02-18T01:49:53.782Z,3.56
2018-02-18T01:52:23.464Z,3.57
2018-02-18T01:54:52.768Z,3.56
2018-02-18T01:57:22.023Z,3.56
2018-02-18T01:59:51.635Z,3.57
2018-02-18T02:02:20.868Z,3.54
2018-02-18T02:04:50.175Z,3.54
2018-02-18T02:07:20.835Z,3.47
2018-02-18T02:09:50.145Z,3.43
2018-02-18T02:12:19.391Z,3.38
2018-02-18T02:14:49.082Z,3.37
2018-02-18T02:17:19.431Z,3.37
2018-02-18T02:19:48.862Z,3.37
2018-02-18T02:22:18.522Z,3.33
2018-02-18T02:24:47.859Z,3.30
2018-02-18T02:27:17.342Z,3.28
2018-02-18T02:29:46.970Z,3.28
2018-02-18T02:32:16.288Z,3.19
2018-02-18T02:34:45.669Z,3.18
2018-02-18T02:37:16.352Z,3.15
2018-02-18T02:39:45.634Z,3.12
2018-02-18T02:42:14.913Z,3.12
2018-02-18T02:44:44.521Z,3.12
2018-02-18T02:47:13.842Z,3.12
2018-02-18T02:49:43.199Z,3.13
2018-02-18T02:52:13.040Z,3.16
2018-02-18T02:54:42.319Z,3.17
2018-02-18T02:57:11.693Z,3.06
2018-02-18T02:59:42.438Z,3.11
2018-02-18T03:02:11.757Z,3.15
2018-02-18T03:04:41.154Z,3.16
2018-02-18T03:07:12.025Z,3.16
2018-02-18T03:09:41.347Z,3.14
2018-02-18T03:12:10.645Z,3.12
2018-02-18T03:14:40.332Z,3.09
2018-02-18T03:17:09.608Z,3.12
2018-02-18T03:19:38.910Z,3.11
2018-02-18T03:22:10.287Z,3.07
2018-02-18T03:24:40.028Z,3.04
2018-02-18T03:27:09.416Z,2.98
2018-02-18T03:29:39.185Z,2.96
2018-02-18T03:32:08.579Z,2.90
2018-02-18T03:34:38.152Z,2.95
2018-02-18T03:37:07.817Z,2.98
2018-02-18T03:39:37.150Z,2.97
2018-02-18T03:42:06.420Z,2.98
2018-02-18T03:44:38.726Z,2.99
2018-02-18T03:47:07.991Z,3.02
2018-02-18T03:49:37.474Z,3.01
2018-02-18T03:52:08.141Z,3.03
2018-02-18T03:54:37.602Z,2.97
2018-02-18T03:57:06.850Z,2.95
2018-02-18T03:59:36.635Z,2.92
2018-02-18T04:02:06.523Z,2.93
2018-02-18T04:04:35.768Z,2.75
2018-02-18T04:07:06.132Z,2.73
2018-02-18T04:09:36.444Z,2.74
2018-02-18T04:12:06.922Z,2.74
2018-02-18T04:14:36.343Z,2.73
2018-02-18T04:17:05.727Z,2.72
2018-02-18T04:19:40.590Z,2.75
2018-02-18T04:22:09.998Z,2.71
2018-02-18T04:24:39.283Z,2.72
2018-02-18T04:27:08.597Z,2.73
2018-02-18T04:29:38.054Z,2.65
2018-02-18T04:32:07.760Z,2.69
2018-02-18T04:34:37.316Z,2.72
2018-02-18T04:37:06.618Z,2.72
2018-02-18T04:39:37.670Z,2.74
2018-02-18T04:42:06.921Z,2.77
2018-02-18T04:44:37.403Z,2.78
2018-02-18T04:47:07.101Z,2.76
2018-02-18T04:49:36.647Z,2.74
2018-02-18T04:52:05.987Z,2.74
2018-02-18T04:57:02.191Z,2.69
2018-02-18T04:59:31.531Z,2.74
2018-02-18T05:02:01.685Z,2.72
2018-02-18T05:04:31.309Z,2.74
2018-02-18T05:07:00.553Z,2.73
2018-02-18T05:09:29.847Z,2.73
2018-02-18T05:11:59.444Z,2.74
2018-02-18T05:14:28.719Z,2.69
2018-02-18T05:16:57.960Z,2.70
2018-02-18T05:19:27.711Z,2.70
2018-02-18T05:21:57.025Z,2.67
2018-02-18T05:24:26.519Z,2.70
2018-02-18T05:26:55.877Z,2.73
2018-02-18T05:29:25.299Z,2.70
2018-02-18T05:31:55.059Z,2.68
2018-02-18T05:34:24.378Z,2.70
2018-02-18T05:36:53.617Z,2.65
2018-02-18T05:39:23.233Z,2.67
2018-02-18T05:41:52.496Z,2.76
2018-02-18T05:44:22.102Z,2.86
2018-02-18T05:46:51.414Z,2.83
2018-02-18T05:49:20.712Z,2.82
2018-02-18T05:51:50.022Z,2.79
2018-02-18T05:54:19.731Z,2.68
2018-02-18T05:56:48.976Z,2.68
2018-02-18T05:59:18.417Z,2.63
2018-02-18T06:01:48.367Z,2.62
2018-02-18T06:04:17.815Z,2.61
2018-02-18T06:06:47.122Z,2.59
2018-02-18T06:09:16.692Z,2.53
2018-02-18T06:11:45.963Z,2.55
2018-02-18T06:14:16.303Z,2.56
2018-02-18T06:16:45.539Z,2.55
2018-02-18T06:19:14.916Z,2.53
2018-02-18T06:21:44.682Z,2.52
2018-02-18T06:24:14.011Z,2.55
2018-02-18T06:26:43.303Z,2.56
2018-02-18T06:29:12.781Z,2.50
2018-02-18T06:31:42.055Z,2.54
2018-02-18T06:34:11.808Z,2.52
2018-02-18T06:36:41.264Z,2.51
2018-02-18T06:39:10.678Z,2.47
2018-02-18T06:41:40.311Z,2.47
2018-02-18T06:44:09.766Z,2.48
2018-02-18T06:46:40.190Z,2.52
2018-02-18T06:49:09.874Z,2.50
2018-02-18T06:51:39.194Z,2.52
2018-02-18T06:54:08.547Z,2.55
2018-02-18T06:56:40.623Z,2.63
2018-02-18T06:59:09.948Z,2.65
2018-02-18T07:01:39.322Z,2.57
2018-02-18T07:04:09.133Z,2.60
2018-02-18T07:06:38.385Z,2.58
2018-02-18T07:09:07.731Z,2.62
2018-02-18T07:11:37.476Z,2.69
2018-02-18T07:14:06.854Z,2.74
2018-02-18T07:16:36.069Z,2.77
2018-02-18T07:19:05.698Z,2.80
2018-02-18T07:21:35.013Z,2.84
2018-02-18T07:24:05.367Z,2.85
2018-02-18T07:26:34.978Z,2.90
2018-02-18T07:29:04.592Z,2.93
2018-02-18T07:31:33.967Z,2.99
2018-02-18T07:34:04.595Z,3.10
2018-02-18T07:36:34.929Z,3.16
2018-02-18T07:39:04.680Z,3.28
2018-02-18T07:41:34.750Z,3.32
2018-02-18T07:44:05.136Z,3.38
2018-02-18T07:46:34.449Z,3.59
2018-02-18T07:49:04.507Z,4.31
2018-02-18T07:51:33.804Z,5.19
2018-02-18T07:54:04.021Z,6.24
2018-02-18T07:56:34.727Z,6.72
2018-02-18T07:59:04.055Z,7.32
2018-02-18T08:01:33.510Z,7.96
2018-02-18T08:04:04.327Z,8.55
2018-02-18T08:06:33.648Z,8.72
2018-02-18T08:09:03.215Z,9.01
2018-02-18T08:11:32.501Z,9.47
2018-02-18T08:14:02.630Z,9.74
2018-02-18T08:16:32.258Z,10.31
2018-02-18T08:19:01.756Z,10.38
2018-02-18T08:21:31.086Z,9.89
2018-02-18T08:24:02.501Z,9.64
2018-02-18T08:26:31.749Z,10.12
2018-02-18T08:29:01.196Z,10.04
2018-02-18T08:31:31.189Z,10.28
2018-02-18T08:34:00.583Z,9.93
2018-02-18T08:36:30.555Z,9.66
2018-02-18T08:39:00.338Z,9.90
2018-02-18T08:41:29.689Z,9.72
2018-02-18T08:43:58.946Z,9.11
2018-02-18T08:46:28.547Z,8.66
2018-02-18T08:48:57.829Z,8.78
2018-02-18T08:51:27.605Z,8.80
2018-02-18T08:53:58.003Z,8.57
2018-02-18T08:56:27.230Z,8.20
2018-02-18T08:58:56.502Z,8.47
2018-02-18T09:01:26.237Z,8.80
2018-02-18T09:03:55.507Z,8.88
2018-02-18T09:06:24.981Z,8.75
2018-02-18T09:08:54.670Z,9.23
2018-02-18T09:11:23.918Z,8.47
2018-02-18T09:13:53.199Z,8.60
2018-02-18T09:16:23.119Z,8.91
2018-02-18T09:18:52.377Z,9.00
2018-02-18T09:21:21.690Z,9.33
2018-02-18T09:23:51.360Z,9.37
2018-02-18T09:26:21.121Z,9.52
2018-02-18T09:28:50.386Z,9.73
2018-02-18T09:31:20.030Z,9.65
2018-02-18T09:33:49.400Z,9.77
2018-02-18T09:36:18.669Z,9.66
2018-02-18T09:38:48.217Z,9.65
2018-02-18T09:42:46.794Z,9.49
2018-02-18T09:45:16.487Z,10.14
2018-02-18T09:47:45.739Z,10.13
2018-02-18T09:50:16.206Z,9.94
2018-02-18T09:52:45.779Z,9.57
2018-02-18T09:55:15.168Z,10.01
2018-02-18T09:57:44.442Z,10.02
2018-02-18T10:00:14.184Z,10.34
2018-02-18T10:02:43.593Z,10.42
2018-02-18T10:05:13.173Z,10.40
2018-02-18T10:07:43.414Z,10.77
2018-02-18T10:10:12.952Z,10.70
2018-02-18T10:12:42.361Z,10.86
2018-02-18T10:15:14.932Z,10.73
2018-02-18T10:17:44.342Z,10.48
2018-02-18T10:20:13.672Z,10.61
2018-02-18T10:22:43.492Z,10.23
2018-02-18T10:25:12.936Z,10.19
2018-02-18T10:27:42.234Z,9.92
2018-02-18T10:30:11.960Z,9.92
2018-02-18T10:32:41.357Z,10.52
2018-02-18T10:35:10.700Z,10.97
2018-02-18T10:37:42.270Z,11.18
2018-02-18T10:40:11.577Z,10.66
2018-02-18T10:42:40.848Z,10.32
2018-02-18T10:45:10.575Z,10.73
2018-02-18T10:47:39.854Z,11.16
2018-02-18T10:50:09.096Z,11.44
2018-02-18T10:52:38.728Z,11.73
2018-02-18T10:55:07.991Z,11.54
2018-02-18T10:57:37.283Z,11.34
2018-02-18T11:00:06.968Z,11.45
2018-02-18T11:02:36.225Z,11.08
2018-02-18T11:05:05.718Z,11.51
2018-02-18T11:07:37.152Z,11.24
2018-02-18T11:10:06.555Z,10.76
2018-02-18T11:12:35.802Z,10.82
2018-02-18T11:15:05.875Z,11.24
2018-02-18T11:17:35.181Z,11.16
2018-02-18T11:20:06.240Z,11.13
2018-02-18T11:22:37.055Z,11.44
2018-02-18T11:25:06.445Z,11.92
2018-02-18T11:27:36.647Z,12.14
2018-02-18T11:30:06.391Z,12.24
2018-02-18T11:32:35.728Z,12.43
2018-02-18T11:35:05.242Z,12.51
2018-02-18T11:37:35.158Z,12.31
2018-02-18T11:40:05.583Z,12.17
2018-02-18T11:42:34.966Z,12.07
2018-02-18T11:45:05.000Z,12.30
2018-02-18T11:47:35.677Z,12.02
2018-02-18T11:50:06.113Z,11.58
2018-02-18T11:52:36.968Z,11.56
2018-02-18T11:55:06.272Z,12.08
2018-02-18T11:57:35.573Z,12.25
2018-02-18T12:00:07.640Z,12.37
2018-02-18T12:02:37.912Z,12.97
2018-02-18T12:05:07.156Z,13.17
2018-02-18T12:07:37.298Z,13.00
2018-02-18T12:10:06.646Z,12.24
2018-02-18T12:12:35.979Z,11.81
2018-02-18T12:15:05.826Z,12.66
2018-02-18T12:17:36.103Z,13.41
2018-02-18T12:20:06.006Z,13.51
2018-02-18T12:22:35.785Z,14.00
2018-02-18T12:25:06.837Z,13.99
2018-02-18T12:27:36.313Z,14.30
2018-02-18T12:30:07.213Z,14.77
2018-02-18T12:32:36.435Z,14.53
2018-02-18T12:35:05.729Z,14.63
2018-02-18T12:37:35.358Z,14.57
2018-02-18T12:40:05.549Z,14.54
2018-02-18T12:42:34.827Z,14.58
2018-02-18T12:45:04.783Z,15.27
2018-02-18T12:47:34.222Z,14.80
2018-02-18T12:50:04.384Z,15.20
2018-02-18T12:52:34.213Z,15.05
2018-02-18T12:55:03.948Z,15.79
2018-02-18T12:57:33.813Z,16.08
2018-02-18T13:00:04.701Z,16.36
2018-02-18T13:02:34.303Z,15.88
2018-02-18T13:05:03.811Z,15.92
2018-02-18T13:07:34.017Z,15.81
2018-02-18T13:12:31.083Z,14.80
2018-02-18T13:15:01.015Z,14.87
2018-02-18T13:17:30.420Z,15.14
2018-02-18T13:19:59.697Z,15.29
2018-02-18T13:22:30.522Z,15.51
2018-02-18T13:24:59.847Z,15.39
2018-02-18T13:27:29.174Z,15.50
2018-02-18T13:29:59.833Z,15.78
2018-02-18T13:32:29.198Z,15.61
2018-02-18T13:34:58.477Z,15.34
2018-02-18T13:37:30.322Z,14.92
2018-02-18T13:39:59.610Z,15.12
2018-02-18T13:42:28.869Z,15.15
2018-02-18T13:44:58.640Z,14.73
2018-02-18T13:47:28.357Z,15.32
2018-02-18T13:49:57.602Z,15.56
2018-02-18T13:52:30.525Z,15.71
2018-02-18T13:54:59.811Z,15.69
2018-02-18T13:57:29.998Z,15.56
2018-02-18T13:59:59.843Z,15.50
2018-02-18T14:02:29.096Z,14.83
2018-02-18T14:04:58.363Z,14.58
2018-02-18T14:07:28.059Z,14.36
2018-02-18T14:09:57.388Z,13.76
2018-02-18T14:12:26.657Z,13.56
2018-02-18T14:14:56.388Z,12.96
2018-02-18T14:17:26.573Z,12.83
2018-02-18T14:19:55.858Z,12.51
2018-02-18T14:22:25.523Z,12.52
2018-02-18T14:24:54.817Z,12.71
2018-02-18T14:27:24.656Z,12.51
2018-02-18T14:29:54.438Z,12.43
2018-02-18T14:32:23.714Z,12.29
2018-02-18T14:34:53.022Z,12.14
2018-02-18T14:37:22.676Z,11.80
2018-02-18T14:39:51.966Z,11.17
2018-02-18T14:46:40.357Z,10.82
2018-02-18T14:51:27.207Z,10.68
2018-02-18T14:54:42.081Z,10.53
2018-02-18T14:57:14.311Z,10.52
2018-02-18T14:59:43.714Z,10.64
2018-02-18T15:02:14.071Z,10.40
2018-02-18T15:04:43.820Z,10.34
2018-02-18T15:07:13.115Z,10.38
2018-02-18T15:09:43.804Z,10.49
2018-02-18T15:12:13.778Z,10.23
2018-02-18T15:14:43.084Z,9.87
2018-02-18T15:17:12.392Z,9.83
2018-02-18T15:19:43.104Z,9.73
2018-02-18T15:22:12.358Z,9.98
2018-02-18T15:24:41.710Z,9.99
2018-02-18T15:27:11.500Z,9.87
2018-02-18T15:29:40.737Z,9.63
2018-02-18T15:32:10.032Z,9.37
2018-02-18T15:34:39.766Z,8.88
2018-02-18T15:37:09.194Z,9.06
2018-02-18T15:39:38.550Z,9.22
2018-02-18T15:42:08.356Z,9.11
2018-02-18T15:44:37.726Z,9.14
2018-02-18T15:47:06.995Z,8.98
2018-02-18T15:49:38.659Z,9.10
2018-02-18T15:52:07.913Z,9.25
2018-02-18T15:54:37.202Z,9.60
2018-02-18T15:57:07.412Z,9.62
2018-02-18T15:59:36.719Z,9.88
2018-02-18T16:02:07.082Z,10.00
2018-02-18T16:04:36.323Z,9.88
2018-02-18T16:07:05.562Z,9.90
2018-02-18T16:09:35.676Z,9.82
2018-02-18T16:12:05.944Z,9.49
2018-02-18T16:14:35.347Z,9.24
2018-02-18T16:17:05.158Z,8.83
2018-02-18T16:19:34.697Z,8.56
2018-02-18T16:22:04.775Z,8.40
2018-02-18T16:24:35.106Z,8.18
2018-02-18T16:27:04.667Z,8.03
2018-02-18T16:29:33.901Z,7.95
2018-02-18T16:32:04.352Z,7.67
2018-02-18T16:34:33.630Z,7.59
2018-02-18T16:37:03.143Z,7.28
2018-02-18T16:39:32.739Z,7.05
2018-02-18T16:42:02.660Z,7.02
2018-02-18T16:44:31.978Z,6.95
2018-02-18T16:47:01.963Z,6.82
2018-02-18T16:49:32.393Z,6.86
2018-02-18T16:52:02.565Z,6.68
2018-02-18T16:54:32.578Z,6.65
2018-02-18T16:57:01.959Z,6.55
2018-02-18T16:59:31.232Z,6.53
2018-02-18T17:02:01.052Z,6.38
2018-02-18T17:04:30.360Z,6.21
2018-02-18T17:06:59.609Z,6.18
2018-02-18T17:09:30.255Z,6.08
2018-02-18T17:11:59.557Z,5.94
2018-02-18T17:14:28.827Z,5.87
2018-02-18T17:16:58.431Z,5.95
2018-02-18T17:19:28.596Z,5.88
2018-02-18T17:21:57.895Z,5.92
2018-02-18T17:24:28.554Z,5.98
2018-02-18T17:26:57.942Z,5.95
2018-02-18T17:29:27.162Z,5.97
2018-02-18T17:31:56.866Z,5.93
2018-02-18T17:34:26.666Z,5.99
2018-02-18T17:36:55.987Z,5.79
2018-02-18T17:39:26.209Z,5.87
2018-02-18T17:41:55.500Z,5.79
2018-02-18T17:44:24.947Z,5.59
2018-02-18T17:46:54.531Z,5.59
2018-02-18T17:49:23.884Z,5.65
2018-02-18T17:51:53.149Z,5.57
2018-02-18T17:54:22.787Z,5.63
2018-02-18T17:56:52.101Z,5.56
2018-02-18T17:59:21.354Z,5.63
2018-02-18T18:01:50.965Z,5.52
2018-02-18T18:04:20.352Z,5.40
2018-02-18T18:10:22.600Z,5.49
2018-02-18T18:12:51.867Z,5.33
2018-02-18T18:15:21.620Z,5.34
2018-02-18T18:20:21.702Z,5.25
2018-02-18T18:22:52.081Z,5.15
2018-02-18T18:25:21.498Z,5.14
2018-02-18T18:27:50.840Z,5.20
2018-02-18T18:30:20.504Z,5.22
2018-02-18T18:32:49.755Z,5.15
2018-02-18T18:35:19.492Z,5.19
2018-02-18T18:37:48.757Z,5.22
2018-02-18T18:40:18.105Z,5.20
2018-02-18T18:42:47.368Z,5.23
2018-02-18T18:45:16.808Z,5.19
2018-02-18T18:47:46.484Z,5.17
2018-02-18T18:50:16.548Z,5.22
2018-02-18T18:52:45.894Z,5.15
2018-02-18T18:55:15.275Z,5.15
2018-02-18T18:57:44.525Z,5.16
2018-02-18T19:00:14.222Z,5.07
2018-02-18T19:02:43.495Z,5.11
2018-02-18T19:05:12.738Z,5.04
2018-02-18T19:07:42.343Z,5.03
2018-02-18T19:10:11.624Z,5.07
2018-02-18T19:12:40.820Z,5.16
2018-02-18T19:15:10.568Z,5.20
2018-02-18T19:17:39.846Z,5.29
2018-02-18T19:20:09.123Z,5.28
2018-02-18T19:22:38.761Z,5.43
2018-02-18T19:25:08.035Z,5.45
2018-02-18T19:27:37.328Z,5.48
2018-02-18T19:30:07.065Z,5.47
2018-02-18T19:32:36.438Z,5.50
2018-02-18T19:35:05.198Z,5.56
2018-02-18T19:37:35.673Z,5.59
2018-02-18T19:40:05.632Z,5.64
2018-02-18T19:42:34.860Z,5.70
2018-02-18T19:45:04.861Z,5.65
2018-02-18T19:47:34.229Z,5.61
2018-02-18T19:50:04.394Z,5.64
2018-02-18T19:52:34.051Z,5.72
2018-02-18T19:55:03.555Z,5.64
2018-02-18T19:57:32.807Z,5.67
2018-02-18T20:00:03.557Z,5.72
2018-02-18T20:02:33.374Z,5.77
2018-02-18T20:07:29.927Z,5.92
2018-02-18T20:09:59.316Z,5.89
2018-02-18T20:12:29.633Z,5.89
2018-02-18T20:14:59.506Z,5.95
2018-02-18T20:17:28.745Z,5.88
2018-02-18T20:19:57.963Z,5.88
2018-02-18T20:22:27.683Z,5.86
2018-02-18T20:24:57.013Z,5.86
2018-02-18T20:27:27.056Z,5.81
2018-02-18T20:29:56.598Z,5.87
2018-02-18T20:32:25.898Z,5.88
2018-02-18T20:34:55.088Z,5.90
2018-02-18T20:37:25.805Z,5.91
2018-02-18T20:39:55.050Z,5.96
2018-02-18T20:42:25.438Z,5.98
2018-02-18T20:44:55.234Z,6.00
2018-02-18T20:47:24.461Z,6.02
2018-02-18T20:49:53.708Z,6.00
2018-02-18T20:52:24.782Z,5.95
2018-02-18T20:54:54.007Z,5.94
2018-02-18T20:57:23.243Z,5.99
2018-02-18T20:59:52.883Z,5.97
2018-02-18T21:02:22.344Z,5.96
2018-02-18T21:04:51.601Z,5.93
2018-02-18T21:07:21.297Z,5.98
2018-02-18T21:12:29.136Z,5.96
2018-02-18T21:14:58.698Z,5.96
2018-02-18T21:17:28.067Z,6.01
2018-02-18T21:19:57.551Z,6.06
2018-02-18T21:22:29.433Z,6.00
2018-02-18T21:24:58.715Z,5.99
2018-02-18T21:27:28.032Z,5.95
2018-02-18T21:29:57.575Z,5.92
2018-02-18T21:32:26.770Z,5.92
2018-02-18T21:34:55.966Z,5.90
2018-02-18T21:37:25.229Z,5.90
2018-02-18T21:39:54.698Z,5.85
2018-02-18T21:42:24.563Z,5.89
2018-02-18T21:44:53.965Z,5.91
2018-02-18T21:47:23.591Z,5.90
2018-02-18T21:49:53.002Z,5.87
2018-02-18T21:52:22.245Z,5.89
2018-02-18T21:54:51.796Z,5.81
2018-02-18T21:57:21.294Z,5.87
2018-02-18T21:59:50.566Z,5.85
2018-02-18T22:02:20.520Z,5.82
2018-02-18T22:04:49.736Z,5.83
2018-02-18T22:07:19.898Z,5.90
2018-02-18T22:09:49.110Z,5.90
2018-02-18T22:12:18.375Z,5.92
2018-02-18T22:15:02.832Z,5.94
2018-02-18T22:17:33.355Z,5.86
2018-02-18T22:20:03.520Z,5.87
2018-02-18T22:22:32.725Z,5.90
2018-02-18T22:25:02.209Z,5.88
2018-02-18T22:27:32.384Z,5.91
2018-02-18T22:30:02.738Z,5.87
2018-02-18T22:32:34.772Z,5.90
2018-02-18T22:35:04.776Z,5.86
2018-02-18T22:37:34.250Z,5.81
2018-02-18T22:40:06.853Z,5.85
2018-02-18T22:42:38.801Z,5.92
2018-02-18T22:45:08.043Z,5.88
2018-02-18T22:47:37.261Z,5.89
2018-02-18T22:50:07.008Z,5.88
2018-02-18T22:52:36.423Z,5.91
2018-02-18T22:55:05.753Z,5.86
2018-02-18T22:57:35.572Z,5.88
2018-02-18T23:00:07.001Z,5.89
2018-02-18T23:02:36.304Z,5.92
2018-02-18T23:05:09.621Z,5.91
2018-02-18T23:07:38.899Z,5.95
2018-02-18T23:10:08.521Z,6.00
2018-02-18T23:12:44.094Z,5.91
2018-02-18T23:15:13.380Z,5.90
2018-02-18T23:17:43.119Z,5.99
2018-02-18T23:20:13.068Z,5.95
2018-02-18T23:22:42.828Z,6.02
2018-02-18T23:25:13.537Z,5.96
2018-02-18T23:27:42.938Z,5.93
2018-02-18T23:30:12.216Z,5.91
2018-02-18T23:32:41.881Z,5.98
2018-02-18T23:35:11.425Z,5.89
2018-02-18T23:37:41.019Z,5.94
2018-02-18T23:40:11.826Z,6.01
2018-02-18T23:42:41.064Z,5.91
2018-02-18T23:45:10.440Z,5.91
2018-02-18T23:47:40.309Z,5.94
2018-02-18T23:50:09.722Z,5.96
2018-02-18T23:52:41.016Z,5.99
2018-02-18T23:55:11.306Z,5.97
2018-02-18T23:57:44.947Z,5.99
